createdAt,value
2018-09-19T00:00:00.664Z,10.47
2018-09-19T00:02:28.904Z,7.40
2018-09-19T00:04:57.189Z,9.27
2018-09-19T00:07:25.484Z,10.20
2018-09-19T00:09:53.795Z,8.83
2018-09-19T00:12:22.056Z,10.53
2018-09-19T00:14:50.281Z,9.27
2018-09-19T00:17:18.523Z,7.80
2018-09-19T00:19:46.795Z,8.20
2018-09-19T00:22:15.071Z,10.43
2018-09-19T00:24:43.416Z,11.57
2018-09-19T00:27:11.654Z,8.80
2018-09-19T00:29:39.979Z,9.27
2018-09-19T00:32:08.300Z,13.50
2018-09-19T00:34:36.541Z,8.90
2018-09-19T00:37:04.763Z,9.87
2018-09-19T00:39:33.008Z,9.57
2018-09-19T00:42:01.252Z,8.57
2018-09-19T00:44:29.534Z,9.67
2018-09-19T00:46:57.767Z,9.20
2018-09-19T00:49:25.999Z,8.80
2018-09-19T00:51:54.220Z,9.63
2018-09-19T00:54:22.560Z,8.70
2018-09-19T00:56:50.873Z,10.30
2018-09-19T00:59:19.087Z,8.73
2018-09-19T01:01:47.429Z,10.33
2018-09-19T01:04:15.678Z,7.90
2018-09-19T01:06:43.941Z,10.27
2018-09-19T01:09:12.207Z,8.97
2018-09-19T01:11:40.519Z,7.97
2018-09-19T01:14:08.762Z,10.93
2018-09-19T01:16:37.043Z,11.13
2018-09-19T01:19:05.306Z,9.33
2018-09-19T01:21:33.599Z,10.10
2018-09-19T01:24:01.835Z,10.73
2018-09-19T01:26:30.076Z,10.90
2018-09-19T01:28:58.323Z,11.20
2018-09-19T01:31:26.558Z,10.33
2018-09-19T01:33:54.820Z,9.17
2018-09-19T01:36:23.058Z,9.03
2018-09-19T01:38:51.409Z,9.13
2018-09-19T01:41:19.669Z,11.33
2018-09-19T01:43:48.137Z,9.93
2018-09-19T01:46:16.518Z,12.50
2018-09-19T01:48:44.791Z,8.33
2018-09-19T01:51:13.084Z,8.77
2018-09-19T01:53:41.342Z,7.83
2018-09-19T01:56:09.610Z,9.33
2018-09-19T01:58:37.950Z,8.20
2018-09-19T02:01:06.315Z,9.97
2018-09-19T02:03:34.535Z,8.60
2018-09-19T02:06:02.795Z,8.77
2018-09-19T02:08:31.044Z,13.97
2018-09-19T02:10:59.345Z,9.80
2018-09-19T02:13:27.654Z,12.67
2018-09-19T02:15:55.907Z,9.60
2018-09-19T02:18:24.296Z,9.13
2018-09-19T02:20:52.623Z,11.97
2018-09-19T02:23:20.944Z,11.50
2018-09-19T02:25:49.178Z,8.20
2018-09-19T02:28:17.459Z,8.20
2018-09-19T02:30:45.699Z,14.50
2018-09-19T02:33:13.946Z,8.87
2018-09-19T02:35:42.222Z,11.33
2018-09-19T02:38:10.475Z,10.33
2018-09-19T02:40:38.697Z,10.90
2018-09-19T02:43:06.935Z,9.27
2018-09-19T02:45:35.183Z,12.53
2018-09-19T02:48:03.501Z,8.83
2018-09-19T02:50:31.791Z,9.03
2018-09-19T02:53:00.014Z,9.37
2018-09-19T02:55:28.259Z,9.13
2018-09-19T02:57:56.487Z,8.70
2018-09-19T03:00:24.771Z,8.93
2018-09-19T03:02:53.002Z,8.90
2018-09-19T03:05:21.293Z,11.73
2018-09-19T03:07:49.548Z,11.97
2018-09-19T03:10:17.769Z,10.37
2018-09-19T03:12:46.063Z,11.87
2018-09-19T03:15:14.348Z,10.33
2018-09-19T03:17:42.824Z,10.03
2018-09-19T03:20:10.973Z,13.47
2018-09-19T03:22:39.232Z,9.80
2018-09-19T03:25:07.539Z,9.80
2018-09-19T03:27:35.811Z,11.37
2018-09-19T03:30:04.117Z,9.33
2018-09-19T03:32:32.373Z,9.37
2018-09-19T03:35:00.659Z,11.03
2018-09-19T03:37:28.930Z,10.77
2018-09-19T03:39:57.148Z,9.73
2018-09-19T03:42:25.379Z,9.67
2018-09-19T03:44:53.607Z,10.70
2018-09-19T03:47:21.855Z,14.07
2018-09-19T03:49:50.136Z,9.23
2018-09-19T03:52:18.406Z,11.37
2018-09-19T03:54:46.617Z,9.60
2018-09-19T03:57:14.860Z,10.43
2018-09-19T03:59:45.118Z,9.40
2018-09-19T04:02:13.452Z,9.20
2018-09-19T04:04:41.803Z,9.20
2018-09-19T04:07:10.042Z,9.07
2018-09-19T04:09:38.308Z,11.00
2018-09-19T04:12:06.873Z,11.87
2018-09-19T04:14:35.239Z,10.13
2018-09-19T04:17:03.488Z,12.73
2018-09-19T04:19:31.723Z,11.93
2018-09-19T04:21:59.960Z,12.37
2018-09-19T04:24:28.269Z,13.10
2018-09-19T04:26:56.570Z,11.83
2018-09-19T04:29:24.808Z,12.13
2018-09-19T04:31:53.038Z,13.23
2018-09-19T04:34:21.268Z,14.30
2018-09-19T04:36:49.498Z,13.23
2018-09-19T04:39:17.823Z,12.07
2018-09-19T04:41:46.045Z,13.93
2018-09-19T04:44:14.376Z,13.17
2018-09-19T04:46:42.662Z,14.13
2018-09-19T04:49:10.890Z,11.10
2018-09-19T04:51:40.070Z,12.83
2018-09-19T04:54:08.558Z,15.87
2018-09-19T04:56:37.174Z,13.27
2018-09-19T04:59:05.503Z,12.67
2018-09-19T05:01:33.750Z,14.73
2018-09-19T05:04:02.019Z,13.17
2018-09-19T05:06:30.322Z,14.00
2018-09-19T05:08:58.612Z,12.67
2018-09-19T05:11:26.881Z,13.70
2018-09-19T05:13:55.140Z,12.43
2018-09-19T05:16:23.438Z,13.97
2018-09-19T05:18:51.667Z,13.13
2018-09-19T05:21:19.919Z,13.33
2018-09-19T05:23:48.746Z,13.87
2018-09-19T05:26:17.008Z,11.27
2018-09-19T05:28:45.267Z,12.27
2018-09-19T05:31:13.536Z,8.53
2018-09-19T05:33:41.841Z,14.17
2018-09-19T05:36:10.078Z,9.97
2018-09-19T05:38:38.316Z,15.80
2018-09-19T05:41:06.648Z,9.73
2018-09-19T05:43:34.898Z,10.40
2018-09-19T05:46:03.153Z,9.63
2018-09-19T05:48:31.674Z,9.70
2018-09-19T05:50:59.905Z,10.70
2018-09-19T05:53:28.344Z,9.53
2018-09-19T05:55:56.670Z,10.77
2018-09-19T05:58:24.945Z,8.70
2018-09-19T06:00:53.188Z,8.83
2018-09-19T06:03:21.441Z,12.27
2018-09-19T06:05:49.732Z,12.00
2018-09-19T06:08:18.213Z,8.93
2018-09-19T06:10:47.681Z,9.47
2018-09-19T06:13:15.967Z,7.87
2018-09-19T06:15:44.252Z,12.77
2018-09-19T06:18:12.527Z,10.60
2018-09-19T06:20:40.843Z,12.97
2018-09-19T06:23:09.107Z,11.70
2018-09-19T06:25:37.367Z,9.50
2018-09-19T06:28:05.605Z,12.80
2018-09-19T06:30:33.873Z,9.40
2018-09-19T06:33:02.254Z,9.80
2018-09-19T06:35:30.594Z,8.33
2018-09-19T06:37:58.885Z,8.10
2018-09-19T06:40:27.134Z,9.43
2018-09-19T06:42:55.410Z,8.77
2018-09-19T06:45:23.684Z,13.67
2018-09-19T06:47:51.914Z,10.37
2018-09-19T06:50:20.195Z,11.07
2018-09-19T06:52:48.435Z,10.20
2018-09-19T06:55:16.695Z,9.23
2018-09-19T06:57:44.938Z,10.23
2018-09-19T07:00:13.198Z,9.23
2018-09-19T07:02:41.459Z,12.07
2018-09-19T07:05:09.731Z,7.57
2018-09-19T07:07:38.033Z,8.23
2018-09-19T07:10:06.261Z,8.10
2018-09-19T07:12:34.461Z,8.80
2018-09-19T07:15:02.675Z,9.70
2018-09-19T07:17:30.861Z,9.10
2018-09-19T07:19:59.090Z,9.33
2018-09-19T07:22:27.279Z,10.97
2018-09-19T07:24:55.614Z,12.63
2018-09-19T07:27:23.795Z,12.67
2018-09-19T07:29:52.019Z,11.53
2018-09-19T07:32:20.347Z,8.70
2018-09-19T07:34:48.615Z,11.57
2018-09-19T07:37:16.815Z,9.10
2018-09-19T07:39:45.007Z,7.50
2018-09-19T07:42:13.197Z,7.97
2018-09-19T07:44:41.418Z,23.83
2018-09-19T07:47:09.637Z,8.87
2018-09-19T07:49:37.815Z,7.13
2018-09-19T07:52:05.994Z,9.13
2018-09-19T07:54:34.289Z,10.13
2018-09-19T07:57:02.530Z,9.80
2018-09-19T07:59:30.799Z,9.90
2018-09-19T08:01:58.974Z,6.87
2018-09-19T08:04:27.182Z,7.17
2018-09-19T08:06:55.376Z,8.47
2018-09-19T08:09:23.686Z,8.47
2018-09-19T08:11:52.033Z,7.90
2018-09-19T08:14:20.238Z,8.67
2018-09-19T08:16:48.476Z,7.77
2018-09-19T08:19:16.772Z,9.70
2018-09-19T08:21:45.013Z,7.37
2018-09-19T08:24:13.259Z,10.70
2018-09-19T08:26:41.498Z,6.70
2018-09-19T08:29:09.776Z,9.60
2018-09-19T08:31:38.063Z,7.53
2018-09-19T08:34:06.322Z,8.70
2018-09-19T08:36:34.620Z,12.10
2018-09-19T08:39:03.223Z,8.77
2018-09-19T08:41:31.464Z,10.13
2018-09-19T08:43:59.703Z,10.30
2018-09-19T08:46:27.905Z,8.10
2018-09-19T08:48:56.107Z,8.00
2018-09-19T08:51:24.334Z,8.63
2018-09-19T08:53:52.561Z,8.40
2018-09-19T08:56:21.059Z,7.07
2018-09-19T08:58:49.267Z,10.87
2018-09-19T09:01:17.520Z,7.80
2018-09-19T09:03:45.890Z,8.83
2018-09-19T09:06:14.104Z,10.13
2018-09-19T09:08:42.426Z,8.60
2018-09-19T09:11:10.670Z,8.77
2018-09-19T09:13:38.938Z,7.00
2018-09-19T09:16:07.166Z,9.07
2018-09-19T09:18:35.367Z,8.70
2018-09-19T09:21:03.725Z,8.10
2018-09-19T09:23:32.016Z,8.00
2018-09-19T09:26:00.275Z,8.43
2018-09-19T09:28:28.486Z,10.50
2018-09-19T09:30:56.698Z,10.43
2018-09-19T09:33:24.952Z,10.60
2018-09-19T09:35:53.179Z,9.20
2018-09-19T09:38:21.398Z,9.70
2018-09-19T09:40:49.723Z,10.57
2018-09-19T09:43:17.936Z,12.37
2018-09-19T09:45:46.235Z,13.53
2018-09-19T09:48:14.436Z,14.03
2018-09-19T09:50:42.640Z,9.37
2018-09-19T09:53:10.865Z,9.53
2018-09-19T09:55:39.097Z,10.77
2018-09-19T09:58:07.624Z,9.77
2018-09-19T10:00:42.590Z,10.60
2018-09-19T10:03:12.001Z,10.33
2018-09-19T10:05:40.546Z,8.90
2018-09-19T10:08:08.811Z,6.80
2018-09-19T10:10:37.796Z,8.47
2018-09-19T10:13:06.093Z,10.03
2018-09-19T10:15:34.686Z,8.70
2018-09-19T10:18:02.895Z,8.87
2018-09-19T10:20:31.195Z,9.80
2018-09-19T10:23:00.075Z,9.00
2018-09-19T10:25:28.324Z,8.00
2018-09-19T10:27:56.570Z,8.80
2018-09-19T10:30:24.771Z,9.80
2018-09-19T10:32:53.081Z,9.97
2018-09-19T10:35:21.318Z,9.53
2018-09-19T10:37:49.534Z,9.07
2018-09-19T10:40:17.784Z,10.70
2018-09-19T10:42:45.995Z,8.20
2018-09-19T10:45:14.256Z,6.87
2018-09-19T10:47:42.484Z,12.83
2018-09-19T10:50:10.693Z,7.23
2018-09-19T10:52:38.935Z,11.20
2018-09-19T10:55:07.131Z,6.70
2018-09-19T10:57:35.338Z,7.57
2018-09-19T11:00:03.565Z,7.37
2018-09-19T11:02:31.786Z,11.97
2018-09-19T11:05:00.129Z,11.53
2018-09-19T11:07:28.372Z,9.63
2018-09-19T11:09:56.628Z,9.08
2018-09-19T11:12:24.861Z,7.47
2018-09-19T11:14:53.060Z,7.62
2018-09-19T11:17:21.298Z,8.88
2018-09-19T11:19:49.628Z,10.68
2018-09-19T11:22:18.203Z,7.53
2018-09-19T11:24:47.135Z,8.83
2018-09-19T11:27:15.392Z,10.50
2018-09-19T11:29:43.663Z,7.40
2018-09-19T11:32:11.960Z,8.08
2018-09-19T11:34:40.531Z,7.70
2018-09-19T11:37:09.424Z,8.68
2018-09-19T11:39:37.669Z,12.40
2018-09-19T11:42:06.034Z,9.18
2018-09-19T11:44:34.620Z,11.38
2018-09-19T11:47:02.944Z,9.63
2018-09-19T11:49:31.188Z,6.47
2018-09-19T11:51:59.393Z,8.28
2018-09-19T11:54:27.764Z,6.97
2018-09-19T11:56:56.048Z,7.53
2018-09-19T11:59:24.313Z,9.20
2018-09-19T12:01:52.547Z,9.18
2018-09-19T12:04:22.801Z,7.87
2018-09-19T12:06:51.027Z,6.25
2018-09-19T12:09:19.239Z,7.62
2018-09-19T12:11:47.525Z,11.83
2018-09-19T12:14:15.748Z,6.78
2018-09-19T12:16:44.135Z,7.45
2018-09-19T12:19:12.377Z,9.08
2018-09-19T12:21:40.604Z,10.23
2018-09-19T12:24:09.012Z,7.33
2018-09-19T12:26:37.306Z,9.05
2018-09-19T12:29:06.177Z,7.83
2018-09-19T12:31:34.410Z,11.70
2018-09-19T12:34:02.723Z,11.10
2018-09-19T12:36:30.979Z,12.03
2018-09-19T12:38:59.195Z,10.18
2018-09-19T12:41:27.452Z,13.48
2018-09-19T12:43:55.711Z,7.47
2018-09-19T12:46:23.947Z,9.53
2018-09-19T12:48:52.176Z,7.97
2018-09-19T12:51:20.393Z,9.55
2018-09-19T12:53:48.648Z,8.93
2018-09-19T12:56:16.951Z,10.78
2018-09-19T12:58:45.196Z,8.43
2018-09-19T13:01:13.423Z,8.75
2018-09-19T13:03:41.676Z,9.65
2018-09-19T13:06:09.874Z,7.90
2018-09-19T13:08:38.170Z,7.90
2018-09-19T13:11:06.465Z,6.35
2018-09-19T13:13:34.937Z,8.78
2018-09-19T13:16:03.156Z,12.43
2018-09-19T13:18:31.392Z,8.50
2018-09-19T13:20:59.640Z,9.40
2018-09-19T13:23:27.874Z,10.18
2018-09-19T13:25:56.123Z,8.95
2018-09-19T13:28:24.388Z,8.18
2018-09-19T13:30:52.685Z,6.80
2018-09-19T13:33:20.950Z,9.23
2018-09-19T13:35:49.176Z,7.78
2018-09-19T13:38:17.395Z,7.95
2018-09-19T13:40:45.637Z,5.62
2018-09-19T13:43:13.916Z,11.28
2018-09-19T13:45:42.361Z,6.00
2018-09-19T13:48:10.591Z,8.30
2018-09-19T13:50:41.736Z,7.78
2018-09-19T13:53:10.104Z,7.45
2018-09-19T13:55:38.355Z,9.93
2018-09-19T13:58:06.594Z,7.67
2018-09-19T14:00:34.835Z,6.28
2018-09-19T14:03:03.051Z,7.60
2018-09-19T14:05:31.272Z,9.93
2018-09-19T14:07:59.515Z,9.33
2018-09-19T14:10:27.810Z,7.55
2018-09-19T14:12:56.031Z,9.90
2018-09-19T14:15:24.275Z,11.15
2018-09-19T14:17:52.501Z,8.45
2018-09-19T14:20:20.787Z,6.78
2018-09-19T14:22:49.134Z,8.85
2018-09-19T14:25:17.523Z,11.03
2018-09-19T14:27:45.787Z,8.88
2018-09-19T14:30:13.995Z,7.70
2018-09-19T14:32:42.257Z,7.30
2018-09-19T14:35:10.483Z,9.83
2018-09-19T14:37:39.157Z,5.97
2018-09-19T14:40:07.402Z,8.55
2018-09-19T14:42:35.987Z,8.30
2018-09-19T14:45:04.590Z,7.60
2018-09-19T14:47:32.900Z,9.05
2018-09-19T14:50:01.821Z,6.33
2018-09-19T14:52:30.022Z,7.45
2018-09-19T14:55:04.647Z,10.85
2018-09-19T15:00:19.380Z,9.58
2018-09-19T15:02:47.650Z,8.78
2018-09-19T15:05:15.940Z,9.40
2018-09-19T15:07:44.216Z,8.60
2018-09-19T15:10:13.132Z,10.30
2018-09-19T15:12:43.493Z,7.87
2018-09-19T15:15:11.789Z,10.80
2018-09-19T15:17:40.052Z,8.77
2018-09-19T15:20:08.533Z,6.47
2018-09-19T15:25:23.690Z,8.53
2018-09-19T15:27:51.967Z,8.83
2018-09-19T15:30:20.256Z,7.93
2018-09-19T15:32:48.514Z,8.23
2018-09-19T15:35:16.787Z,8.50
2018-09-19T15:37:45.084Z,8.50
2018-09-19T15:40:13.494Z,8.03
2018-09-19T15:42:41.875Z,8.47
2018-09-19T15:45:10.119Z,7.60
2018-09-19T15:47:40.578Z,9.03
2018-09-19T15:50:12.965Z,12.23
2018-09-19T15:52:54.627Z,7.03
2018-09-19T15:55:23.012Z,8.10
2018-09-19T15:57:51.391Z,6.93
2018-09-19T16:00:19.832Z,8.33
2018-09-19T16:02:48.125Z,12.20
2018-09-19T16:05:20.438Z,7.43
2018-09-19T16:07:48.795Z,8.13
2018-09-19T16:10:19.133Z,7.50
2018-09-19T16:12:47.414Z,9.10
2018-09-19T16:15:15.730Z,9.93
2018-09-19T16:17:45.988Z,13.27
2018-09-19T16:20:16.391Z,7.90
2018-09-19T16:22:44.640Z,10.03
2018-09-19T16:25:14.989Z,12.10
2018-09-19T16:30:19.508Z,9.73
2018-09-19T16:32:47.977Z,10.23
2018-09-19T16:35:16.448Z,16.17
2018-09-19T16:37:44.870Z,9.10
2018-09-19T16:43:00.048Z,15.57
2018-09-19T16:45:28.769Z,16.13
2018-09-19T16:47:57.193Z,14.60
2018-09-19T16:50:25.809Z,14.13
2018-09-19T16:52:54.908Z,15.73
2018-09-19T16:55:23.430Z,14.20
2018-09-19T16:57:51.968Z,17.63
2018-09-19T17:00:20.415Z,14.90
2018-09-19T17:02:49.176Z,15.13
2018-09-19T17:05:17.681Z,14.53
2018-09-19T17:07:46.097Z,19.33
2018-09-19T17:10:14.584Z,27.73
2018-09-19T17:12:43.040Z,20.80
2018-09-19T17:15:11.624Z,16.70
2018-09-19T17:17:40.151Z,18.40
2018-09-19T17:20:08.627Z,18.43
2018-09-19T17:22:37.100Z,24.20
2018-09-19T17:25:05.600Z,22.53
2018-09-19T17:27:34.916Z,19.67
2018-09-19T17:30:03.351Z,20.37
2018-09-19T17:32:31.904Z,17.40
2018-09-19T17:35:00.380Z,20.23
2018-09-19T17:37:28.847Z,16.00
2018-09-19T17:39:57.344Z,22.20
2018-09-19T17:42:25.786Z,22.73
2018-09-19T17:44:54.270Z,24.77
2018-09-19T17:47:23.102Z,21.23
2018-09-19T17:49:52.443Z,28.40
2018-09-19T17:52:20.887Z,19.40
2018-09-19T17:54:49.291Z,18.17
2018-09-19T17:57:17.758Z,25.10
2018-09-19T17:59:52.828Z,19.57
2018-09-19T18:02:21.308Z,29.50
2018-09-19T18:04:49.818Z,21.57
2018-09-19T18:07:18.193Z,24.23
2018-09-19T18:09:46.615Z,22.23
2018-09-19T18:12:15.131Z,21.63
2018-09-19T18:14:43.590Z,23.87
2018-09-19T18:17:12.112Z,29.13
2018-09-19T18:19:40.605Z,23.67
2018-09-19T18:22:09.069Z,22.10
2018-09-19T18:24:37.533Z,20.00
2018-09-19T18:27:05.989Z,26.03
2018-09-19T18:29:34.468Z,18.90
2018-09-19T18:32:02.856Z,29.90
2018-09-19T18:34:31.332Z,21.60
2018-09-19T18:36:59.814Z,24.20
2018-09-19T18:39:29.315Z,25.07
2018-09-19T18:41:57.770Z,24.17
2018-09-19T18:44:27.040Z,23.17
2018-09-19T18:46:56.807Z,25.10
2018-09-19T18:49:25.220Z,22.23
2018-09-19T18:51:53.700Z,26.20
2018-09-19T18:54:23.315Z,21.00
2018-09-19T18:56:52.320Z,28.43
2018-09-19T18:59:21.068Z,24.07
2018-09-19T19:01:49.551Z,26.63
2018-09-19T19:04:19.822Z,32.83
2018-09-19T19:06:48.781Z,26.20
2018-09-19T19:09:17.248Z,30.30
2018-09-19T19:11:48.078Z,30.87
2018-09-19T19:14:20.335Z,30.00
2018-09-19T19:16:48.813Z,32.67
2018-09-19T19:19:17.457Z,29.93
2018-09-19T19:21:46.055Z,32.57
2018-09-19T19:24:14.558Z,30.27
2018-09-19T19:26:43.148Z,31.50
2018-09-19T19:29:11.755Z,27.23
2018-09-19T19:31:41.142Z,23.70
2018-09-19T19:34:09.373Z,29.50
2018-09-19T19:36:37.639Z,25.33
2018-09-19T19:39:07.295Z,26.47
2018-09-19T19:41:35.656Z,23.03
2018-09-19T19:44:04.018Z,29.90
2018-09-19T19:46:33.527Z,26.03
2018-09-19T19:49:03.077Z,29.07
2018-09-19T19:51:31.350Z,23.83
2018-09-19T19:54:00.960Z,25.10
2018-09-19T19:56:29.294Z,25.03
2018-09-19T19:58:58.355Z,27.90
2018-09-19T20:01:26.650Z,30.37
2018-09-19T20:03:54.953Z,32.70
2018-09-19T20:06:23.314Z,36.17
2018-09-19T20:08:52.020Z,39.40
2018-09-19T20:11:20.526Z,41.03
2018-09-19T20:13:49.680Z,38.57
2018-09-19T20:16:18.146Z,39.00
2018-09-19T20:18:47.838Z,40.30
2018-09-19T20:21:16.234Z,40.10
2018-09-19T20:23:44.578Z,43.27
2018-09-19T20:26:13.176Z,46.73
2018-09-19T20:28:41.456Z,42.90
2018-09-19T20:31:09.756Z,40.83
2018-09-19T20:33:38.194Z,40.50
2018-09-19T20:36:06.507Z,34.40
2018-09-19T20:38:35.405Z,37.77
2018-09-19T20:41:05.167Z,32.03
2018-09-19T21:17:37.053Z,28.43
2018-09-19T21:20:05.515Z,30.20
2018-09-19T21:22:34.214Z,29.03
2018-09-19T21:25:02.617Z,28.47
2018-09-19T21:27:31.922Z,30.13
2018-09-19T21:30:00.278Z,30.60
2018-09-19T21:32:28.852Z,27.30
2018-09-19T21:34:57.221Z,33.70
2018-09-19T21:37:25.616Z,33.13
2018-09-19T21:39:53.972Z,28.67
2018-09-19T21:42:22.373Z,34.83
2018-09-19T21:44:50.789Z,31.57
2018-09-19T21:47:19.060Z,35.67
2018-09-19T21:49:47.315Z,35.23
2018-09-19T21:52:15.607Z,31.90
2018-09-19T21:54:43.872Z,33.97
2018-09-19T21:57:12.206Z,34.50
2018-09-19T21:59:40.537Z,32.27
2018-09-19T22:02:08.859Z,42.77
2018-09-19T22:04:37.149Z,43.90
2018-09-19T22:07:12.769Z,35.00
2018-09-19T22:09:41.249Z,39.77
2018-09-19T22:12:10.342Z,40.67
2018-09-19T22:14:39.155Z,40.83
2018-09-19T22:17:07.849Z,44.57
2018-09-19T22:19:36.391Z,37.07
2018-09-19T22:22:04.803Z,37.27
2018-09-19T22:24:33.380Z,38.13
2018-09-19T22:27:01.719Z,41.20
2018-09-19T22:29:32.065Z,38.03
2018-09-19T22:32:00.335Z,42.20
2018-09-19T22:34:28.753Z,43.57
2018-09-19T22:36:59.061Z,37.80
2018-09-19T22:39:27.348Z,44.37
2018-09-19T22:41:55.638Z,46.53
2018-09-19T22:44:23.928Z,46.27
2018-09-19T22:46:52.231Z,45.93
2018-09-19T22:49:20.651Z,40.07
2018-09-19T22:51:49.882Z,37.17
2018-09-19T22:54:18.175Z,36.13
2018-09-19T22:56:48.581Z,37.33
2018-09-19T22:59:16.918Z,33.87
2018-09-19T23:01:45.236Z,32.57
2018-09-19T23:04:15.356Z,31.80
2018-09-19T23:06:47.653Z,34.07
2018-09-19T23:09:15.958Z,30.53
2018-09-19T23:11:44.357Z,31.50
2018-09-19T23:14:12.712Z,33.60
2018-09-19T23:16:41.753Z,32.17
2018-09-19T23:19:10.024Z,31.63
2018-09-19T23:21:38.324Z,33.23
2018-09-19T23:24:07.268Z,34.23
2018-09-19T23:26:41.584Z,39.97
2018-09-19T23:29:09.926Z,37.43
2018-09-19T23:31:38.209Z,36.37
2018-09-19T23:34:07.235Z,36.63
2018-09-19T23:36:35.898Z,40.90
2018-09-19T23:39:05.854Z,43.33
2018-09-19T23:41:34.200Z,35.97
2018-09-19T23:44:03.232Z,36.93
2018-09-19T23:46:32.172Z,33.23
2018-09-19T23:49:00.424Z,32.37
2018-09-19T23:51:29.644Z,34.30
2018-09-19T23:54:01.986Z,31.30
2018-09-19T23:56:30.271Z,35.63
2018-09-19T23:58:58.566Z,40.70
